sensor_id;sensor_type;location;lat;lon;timestamp;P1;durP1;ratioP1;P2;durP2;ratioP2
29302;SDS011;60019;45.556;12.004;2024-02-15T00:04:18;26.30;;;19.02;;
29302;SDS011;60019;45.556;12.004;2024-02-15T00:10:20;26.95;;;19.92;;
29302;SDS011;60019;45.556;12.004;2024-02-15T00:16:23;25.92;;;18.92;;
29302;SDS011;60019;45.556;12.004;2024-02-15T00:22:25;27.33;;;19.70;;
29302;SDS011;60019;45.556;12.004;2024-02-15T00:28:27;26.77;;;18.63;;
29302;SDS011;60019;45.556;12.004;2024-02-15T00:34:29;28.10;;;19.30;;
29302;SDS011;60019;45.556;12.004;2024-02-15T00:40:30;26.48;;;18.42;;
29302;SDS011;60019;45.556;12.004;2024-02-15T00:46:32;24.48;;;17.90;;
29302;SDS011;60019;45.556;12.004;2024-02-15T00:52:34;24.08;;;18.33;;
29302;SDS011;60019;45.556;12.004;2024-02-15T00:58:37;23.60;;;17.80;;
29302;SDS011;60019;45.556;12.004;2024-02-15T01:04:38;25.15;;;18.38;;
29302;SDS011;60019;45.556;12.004;2024-02-15T01:10:40;23.35;;;17.73;;
29302;SDS011;60019;45.556;12.004;2024-02-15T01:16:42;22.73;;;18.95;;
29302;SDS011;60019;45.556;12.004;2024-02-15T01:22:45;22.38;;;16.25;;
29302;SDS011;60019;45.556;12.004;2024-02-15T01:28:46;19.85;;;15.93;;
29302;SDS011;60019;45.556;12.004;2024-02-15T01:34:49;22.70;;;18.02;;
29302;SDS011;60019;45.556;12.004;2024-02-15T01:40:54;18.48;;;15.50;;
29302;SDS011;60019;45.556;12.004;2024-02-15T01:46:56;23.40;;;18.45;;
29302;SDS011;60019;45.556;12.004;2024-02-15T01:52:59;20.17;;;15.45;;
29302;SDS011;60019;45.556;12.004;2024-02-15T01:59:02;16.45;;;13.82;;
29302;SDS011;60019;45.556;12.004;2024-02-15T02:05:06;18.33;;;15.40;;
29302;SDS011;60019;45.556;12.004;2024-02-15T02:11:09;19.17;;;15.45;;
29302;SDS011;60019;45.556;12.004;2024-02-15T02:17:11;25.60;;;18.42;;
29302;SDS011;60019;45.556;12.004;2024-02-15T02:23:14;32.97;;;22.63;;
29302;SDS011;60019;45.556;12.004;2024-02-15T02:29:17;35.58;;;23.98;;
29302;SDS011;60019;45.556;12.004;2024-02-15T02:35:19;31.95;;;23.23;;
29302;SDS011;60019;45.556;12.004;2024-02-15T02:41:21;30.30;;;22.17;;
29302;SDS011;60019;45.556;12.004;2024-02-15T02:47:24;30.58;;;21.55;;
29302;SDS011;60019;45.556;12.004;2024-02-15T02:53:25;27.92;;;20.10;;
29302;SDS011;60019;45.556;12.004;2024-02-15T02:59:27;27.42;;;19.25;;
29302;SDS011;60019;45.556;12.004;2024-02-15T03:05:29;24.45;;;18.05;;
29302;SDS011;60019;45.556;12.004;2024-02-15T03:11:31;24.67;;;18.90;;
29302;SDS011;60019;45.556;12.004;2024-02-15T03:17:33;22.58;;;17.77;;
29302;SDS011;60019;45.556;12.004;2024-02-15T03:23:35;19.83;;;15.65;;
29302;SDS011;60019;45.556;12.004;2024-02-15T03:29:37;21.13;;;15.95;;
29302;SDS011;60019;45.556;12.004;2024-02-15T03:35:38;20.90;;;15.23;;
29302;SDS011;60019;45.556;12.004;2024-02-15T03:41:40;22.35;;;17.27;;
29302;SDS011;60019;45.556;12.004;2024-02-15T03:47:42;20.20;;;15.82;;
29302;SDS011;60019;45.556;12.004;2024-02-15T03:53:44;21.10;;;15.43;;
29302;SDS011;60019;45.556;12.004;2024-02-15T03:59:46;22.33;;;15.93;;
29302;SDS011;60019;45.556;12.004;2024-02-15T04:05:53;17.42;;;14.02;;
29302;SDS011;60019;45.556;12.004;2024-02-15T04:11:55;18.05;;;14.60;;
29302;SDS011;60019;45.556;12.004;2024-02-15T04:17:58;16.50;;;14.05;;
29302;SDS011;60019;45.556;12.004;2024-02-15T04:24:00;15.38;;;13.77;;
29302;SDS011;60019;45.556;12.004;2024-02-15T04:30:02;16.48;;;13.57;;
29302;SDS011;60019;45.556;12.004;2024-02-15T04:36:05;16.52;;;13.90;;
29302;SDS011;60019;45.556;12.004;2024-02-15T04:42:07;14.95;;;12.85;;
29302;SDS011;60019;45.556;12.004;2024-02-15T04:48:12;14.65;;;12.85;;
29302;SDS011;60019;45.556;12.004;2024-02-15T04:54:14;16.08;;;12.88;;
29302;SDS011;60019;45.556;12.004;2024-02-15T05:00:18;14.13;;;12.63;;
29302;SDS011;60019;45.556;12.004;2024-02-15T05:06:21;12.38;;;10.93;;
29302;SDS011;60019;45.556;12.004;2024-02-15T05:12:24;13.07;;;11.73;;
29302;SDS011;60019;45.556;12.004;2024-02-15T05:18:26;13.40;;;12.00;;
29302;SDS011;60019;45.556;12.004;2024-02-15T05:24:28;13.07;;;11.68;;
29302;SDS011;60019;45.556;12.004;2024-02-15T05:30:32;13.27;;;11.88;;
29302;SDS011;60019;45.556;12.004;2024-02-15T05:36:34;13.25;;;11.95;;
29302;SDS011;60019;45.556;12.004;2024-02-15T05:42:36;13.25;;;11.85;;
29302;SDS011;60019;45.556;12.004;2024-02-15T05:48:38;11.18;;;10.07;;
29302;SDS011;60019;45.556;12.004;2024-02-15T05:54:40;14.10;;;10.85;;
29302;SDS011;60019;45.556;12.004;2024-02-15T06:00:42;12.57;;;10.63;;
29302;SDS011;60019;45.556;12.004;2024-02-15T06:06:50;13.00;;;10.40;;
29302;SDS011;60019;45.556;12.004;2024-02-15T06:12:52;11.40;;;10.10;;
29302;SDS011;60019;45.556;12.004;2024-02-15T06:18:53;14.35;;;12.45;;
29302;SDS011;60019;45.556;12.004;2024-02-15T06:24:56;14.77;;;12.40;;
29302;SDS011;60019;45.556;12.004;2024-02-15T06:30:58;14.40;;;12.18;;
29302;SDS011;60019;45.556;12.004;2024-02-15T06:37:35;16.10;;;13.27;;
29302;SDS011;60019;45.556;12.004;2024-02-15T06:43:55;16.75;;;12.88;;
29302;SDS011;60019;45.556;12.004;2024-02-15T06:49:58;17.55;;;15.02;;
29302;SDS011;60019;45.556;12.004;2024-02-15T06:55:59;16.77;;;15.07;;
29302;SDS011;60019;45.556;12.004;2024-02-15T07:02:03;17.90;;;16.00;;
29302;SDS011;60019;45.556;12.004;2024-02-15T07:08:08;16.73;;;14.57;;
29302;SDS011;60019;45.556;12.004;2024-02-15T07:14:16;24.02;;;14.88;;
29302;SDS011;60019;45.556;12.004;2024-02-15T07:20:20;36.03;;;15.93;;
29302;SDS011;60019;45.556;12.004;2024-02-15T07:26:24;34.83;;;15.82;;
29302;SDS011;60019;45.556;12.004;2024-02-15T07:32:26;36.28;;;15.75;;
29302;SDS011;60019;45.556;12.004;2024-02-15T07:38:27;26.88;;;15.30;;
29302;SDS011;60019;45.556;12.004;2024-02-15T07:44:30;27.42;;;14.43;;
29302;SDS011;60019;45.556;12.004;2024-02-15T07:50:33;31.48;;;15.80;;
29302;SDS011;60019;45.556;12.004;2024-02-15T07:56:37;34.13;;;14.73;;
29302;SDS011;60019;45.556;12.004;2024-02-15T08:02:39;24.17;;;13.95;;
29302;SDS011;60019;45.556;12.004;2024-02-15T08:08:41;19.00;;;13.57;;
29302;SDS011;60019;45.556;12.004;2024-02-15T08:14:46;37.00;;;17.23;;
29302;SDS011;60019;45.556;12.004;2024-02-15T08:20:48;25.45;;;14.07;;
29302;SDS011;60019;45.556;12.004;2024-02-15T08:26:50;36.30;;;14.48;;
29302;SDS011;60019;45.556;12.004;2024-02-15T08:32:53;32.33;;;13.23;;
29302;SDS011;60019;45.556;12.004;2024-02-15T08:38:55;24.88;;;14.15;;
29302;SDS011;60019;45.556;12.004;2024-02-15T08:44:57;23.65;;;13.70;;
29302;SDS011;60019;45.556;12.004;2024-02-15T08:51:00;26.38;;;14.73;;
29302;SDS011;60019;45.556;12.004;2024-02-15T08:57:01;27.60;;;14.65;;
29302;SDS011;60019;45.556;12.004;2024-02-15T09:03:04;71.28;;;19.35;;
29302;SDS011;60019;45.556;12.004;2024-02-15T09:09:07;34.38;;;16.45;;
29302;SDS011;60019;45.556;12.004;2024-02-15T09:15:09;45.40;;;17.98;;
29302;SDS011;60019;45.556;12.004;2024-02-15T09:21:13;38.80;;;18.15;;
29302;SDS011;60019;45.556;12.004;2024-02-15T09:27:15;42.67;;;18.52;;
29302;SDS011;60019;45.556;12.004;2024-02-15T09:33:18;39.45;;;19.35;;
29302;SDS011;60019;45.556;12.004;2024-02-15T09:39:20;25.60;;;18.00;;
29302;SDS011;60019;45.556;12.004;2024-02-15T09:45:23;25.60;;;18.50;;
29302;SDS011;60019;45.556;12.004;2024-02-15T09:51:25;47.53;;;20.35;;
29302;SDS011;60019;45.556;12.004;2024-02-15T09:57:28;36.92;;;19.67;;
29302;SDS011;60019;45.556;12.004;2024-02-15T10:03:29;33.47;;;20.40;;
29302;SDS011;60019;45.556;12.004;2024-02-15T10:09:32;30.05;;;18.67;;
29302;SDS011;60019;45.556;12.004;2024-02-15T10:15:34;44.00;;;20.05;;
29302;SDS011;60019;45.556;12.004;2024-02-15T10:21:36;48.97;;;20.77;;
29302;SDS011;60019;45.556;12.004;2024-02-15T10:27:42;41.95;;;19.10;;
29302;SDS011;60019;45.556;12.004;2024-02-15T10:33:46;38.15;;;19.20;;
29302;SDS011;60019;45.556;12.004;2024-02-15T10:39:59;42.50;;;21.17;;
29302;SDS011;60019;45.556;12.004;2024-02-15T10:46:12;55.70;;;20.95;;
29302;SDS011;60019;45.556;12.004;2024-02-15T10:52:26;31.83;;;18.95;;
29302;SDS011;60019;45.556;12.004;2024-02-15T10:58:32;49.50;;;21.42;;
29302;SDS011;60019;45.556;12.004;2024-02-15T11:04:38;44.17;;;21.88;;
29302;SDS011;60019;45.556;12.004;2024-02-15T11:10:42;44.75;;;21.90;;
29302;SDS011;60019;45.556;12.004;2024-02-15T11:16:44;47.97;;;21.05;;
29302;SDS011;60019;45.556;12.004;2024-02-15T11:22:48;35.38;;;21.25;;
29302;SDS011;60019;45.556;12.004;2024-02-15T11:28:58;36.63;;;22.10;;
29302;SDS011;60019;45.556;12.004;2024-02-15T11:35:06;39.45;;;22.08;;
29302;SDS011;60019;45.556;12.004;2024-02-15T11:41:17;41.50;;;20.55;;
29302;SDS011;60019;45.556;12.004;2024-02-15T11:47:19;42.20;;;21.52;;
29302;SDS011;60019;45.556;12.004;2024-02-15T11:53:21;33.75;;;20.92;;
29302;SDS011;60019;45.556;12.004;2024-02-15T11:59:24;34.33;;;21.58;;
29302;SDS011;60019;45.556;12.004;2024-02-15T12:05:33;37.03;;;22.77;;
29302;SDS011;60019;45.556;12.004;2024-02-15T12:11:59;30.45;;;20.80;;
29302;SDS011;60019;45.556;12.004;2024-02-15T12:18:20;35.38;;;23.02;;
29302;SDS011;60019;45.556;12.004;2024-02-15T12:24:43;37.83;;;21.42;;
29302;SDS011;60019;45.556;12.004;2024-02-15T12:30:44;33.90;;;23.20;;
29302;SDS011;60019;45.556;12.004;2024-02-15T12:36:47;39.22;;;21.92;;
29302;SDS011;60019;45.556;12.004;2024-02-15T12:42:50;37.10;;;21.83;;
29302;SDS011;60019;45.556;12.004;2024-02-15T12:48:51;32.13;;;21.42;;
29302;SDS011;60019;45.556;12.004;2024-02-15T12:55:25;31.13;;;21.38;;
29302;SDS011;60019;45.556;12.004;2024-02-15T13:01:28;28.60;;;20.23;;
29302;SDS011;60019;45.556;12.004;2024-02-15T13:07:30;28.83;;;20.10;;
29302;SDS011;60019;45.556;12.004;2024-02-15T13:13:31;29.10;;;19.58;;
29302;SDS011;60019;45.556;12.004;2024-02-15T13:19:35;28.35;;;18.83;;
29302;SDS011;60019;45.556;12.004;2024-02-15T13:25:37;26.73;;;19.67;;
29302;SDS011;60019;45.556;12.004;2024-02-15T13:31:43;35.20;;;21.60;;
29302;SDS011;60019;45.556;12.004;2024-02-15T13:37:48;25.95;;;19.13;;
29302;SDS011;60019;45.556;12.004;2024-02-15T13:43:50;26.83;;;19.77;;
29302;SDS011;60019;45.556;12.004;2024-02-15T13:49:52;37.58;;;23.20;;
29302;SDS011;60019;45.556;12.004;2024-02-15T13:55:54;29.15;;;19.92;;
29302;SDS011;60019;45.556;12.004;2024-02-15T14:01:56;30.60;;;20.42;;
29302;SDS011;60019;45.556;12.004;2024-02-15T14:07:58;28.48;;;20.65;;
29302;SDS011;60019;45.556;12.004;2024-02-15T14:14:00;31.60;;;21.35;;
29302;SDS011;60019;45.556;12.004;2024-02-15T14:20:02;27.35;;;19.48;;
29302;SDS011;60019;45.556;12.004;2024-02-15T14:26:08;30.40;;;18.98;;
29302;SDS011;60019;45.556;12.004;2024-02-15T14:32:11;26.00;;;19.02;;
29302;SDS011;60019;45.556;12.004;2024-02-15T14:38:31;28.38;;;19.02;;
29302;SDS011;60019;45.556;12.004;2024-02-15T14:44:34;25.98;;;18.25;;
29302;SDS011;60019;45.556;12.004;2024-02-15T14:50:37;26.42;;;18.85;;
29302;SDS011;60019;45.556;12.004;2024-02-15T14:56:39;27.90;;;18.17;;
29302;SDS011;60019;45.556;12.004;2024-02-15T15:02:41;26.42;;;18.45;;
29302;SDS011;60019;45.556;12.004;2024-02-15T15:08:43;26.23;;;17.33;;
29302;SDS011;60019;45.556;12.004;2024-02-15T15:15:03;26.50;;;17.45;;
29302;SDS011;60019;45.556;12.004;2024-02-15T15:21:06;29.13;;;18.65;;
29302;SDS011;60019;45.556;12.004;2024-02-15T15:27:08;29.77;;;19.60;;
29302;SDS011;60019;45.556;12.004;2024-02-15T15:33:11;24.73;;;18.58;;
29302;SDS011;60019;45.556;12.004;2024-02-15T15:39:14;28.30;;;19.20;;
29302;SDS011;60019;45.556;12.004;2024-02-15T15:45:17;26.42;;;17.85;;
29302;SDS011;60019;45.556;12.004;2024-02-15T15:51:19;29.02;;;19.75;;
29302;SDS011;60019;45.556;12.004;2024-02-15T15:57:20;28.13;;;19.15;;
29302;SDS011;60019;45.556;12.004;2024-02-15T16:03:25;28.75;;;19.10;;
29302;SDS011;60019;45.556;12.004;2024-02-15T16:09:27;31.20;;;19.02;;
29302;SDS011;60019;45.556;12.004;2024-02-15T16:15:29;28.10;;;19.05;;
29302;SDS011;60019;45.556;12.004;2024-02-15T16:21:31;29.52;;;18.45;;
29302;SDS011;60019;45.556;12.004;2024-02-15T16:27:34;28.85;;;19.33;;
29302;SDS011;60019;45.556;12.004;2024-02-15T16:33:35;28.52;;;20.02;;
29302;SDS011;60019;45.556;12.004;2024-02-15T16:39:38;27.30;;;18.48;;
29302;SDS011;60019;45.556;12.004;2024-02-15T16:45:43;29.13;;;20.92;;
29302;SDS011;60019;45.556;12.004;2024-02-15T16:51:44;32.92;;;21.55;;
29302;SDS011;60019;45.556;12.004;2024-02-15T16:57:46;33.75;;;21.02;;
29302;SDS011;60019;45.556;12.004;2024-02-15T17:03:50;32.78;;;22.17;;
29302;SDS011;60019;45.556;12.004;2024-02-15T17:09:53;30.83;;;20.98;;
29302;SDS011;60019;45.556;12.004;2024-02-15T17:15:56;28.48;;;20.67;;
29302;SDS011;60019;45.556;12.004;2024-02-15T17:21:58;28.17;;;20.15;;
29302;SDS011;60019;45.556;12.004;2024-02-15T17:28:04;31.40;;;21.23;;
29302;SDS011;60019;45.556;12.004;2024-02-15T17:34:05;27.33;;;19.95;;
29302;SDS011;60019;45.556;12.004;2024-02-15T17:40:12;28.85;;;20.90;;
29302;SDS011;60019;45.556;12.004;2024-02-15T17:46:14;31.08;;;21.88;;
29302;SDS011;60019;45.556;12.004;2024-02-15T17:52:16;32.67;;;21.73;;
29302;SDS011;60019;45.556;12.004;2024-02-15T17:58:18;32.72;;;22.70;;
29302;SDS011;60019;45.556;12.004;2024-02-15T18:04:20;32.47;;;22.52;;
29302;SDS011;60019;45.556;12.004;2024-02-15T18:10:22;34.47;;;23.40;;
29302;SDS011;60019;45.556;12.004;2024-02-15T18:16:24;33.35;;;23.02;;
29302;SDS011;60019;45.556;12.004;2024-02-15T18:22:26;35.72;;;23.35;;
29302;SDS011;60019;45.556;12.004;2024-02-15T18:28:28;47.58;;;29.50;;
29302;SDS011;60019;45.556;12.004;2024-02-15T18:34:31;59.50;;;35.25;;
29302;SDS011;60019;45.556;12.004;2024-02-15T18:40:36;50.95;;;33.83;;
29302;SDS011;60019;45.556;12.004;2024-02-15T18:46:38;48.38;;;31.45;;
29302;SDS011;60019;45.556;12.004;2024-02-15T18:52:40;43.17;;;30.08;;
